sensor_id;sensor_type;location;lat;lon;timestamp;pressure;altitude;pressure_sealevel;temperature;humidity
32197;BME280;18697;42.770;23.400;2022-12-04T00:00:10;96607.59;;;6.22;94.38
32197;BME280;18697;42.770;23.400;2022-12-04T00:02:37;96615.41;;;6.27;94.24
32197;BME280;18697;42.770;23.400;2022-12-04T00:05:04;96604.44;;;6.23;94.61
32197;BME280;18697;42.770;23.400;2022-12-04T00:07:30;96602.00;;;6.29;94.15
32197;BME280;18697;42.770;23.400;2022-12-04T00:09:55;96598.38;;;6.36;93.83
32197;BME280;18697;42.770;23.400;2022-12-04T00:12:21;96596.69;;;6.45;92.77
32197;BME280;18697;42.770;23.400;2022-12-04T00:14:46;96607.72;;;6.45;92.23
32197;BME280;18697;42.770;23.400;2022-12-04T00:17:12;96611.22;;;6.49;92.44
32197;BME280;18697;42.770;23.400;2022-12-04T00:19:37;96621.34;;;6.59;91.57
32197;BME280;18697;42.770;23.400;2022-12-04T00:22:03;96608.69;;;6.62;90.85
32197;BME280;18697;42.770;23.400;2022-12-04T00:24:28;96618.91;;;6.65;90.65
32197;BME280;18697;42.770;23.400;2022-12-04T00:26:54;96615.38;;;6.65;90.44
32197;BME280;18697;42.770;23.400;2022-12-04T00:29:19;96614.59;;;6.64;90.02
32197;BME280;18697;42.770;23.400;2022-12-04T00:31:44;96619.81;;;6.55;89.66
32197;BME280;18697;42.770;23.400;2022-12-04T00:34:10;96624.53;;;6.58;89.59
32197;BME280;18697;42.770;23.400;2022-12-04T00:36:35;96620.28;;;6.50;89.55
32197;BME280;18697;42.770;23.400;2022-12-04T00:39:02;96619.50;;;6.49;89.63
32197;BME280;18697;42.770;23.400;2022-12-04T00:41:30;96625.75;;;6.53;89.78
32197;BME280;18697;42.770;23.400;2022-12-04T00:43:56;96621.38;;;6.56;89.47
32197;BME280;18697;42.770;23.400;2022-12-04T00:46:21;96635.09;;;6.63;89.20
32197;BME280;18697;42.770;23.400;2022-12-04T00:48:48;96626.44;;;6.61;88.80
32197;BME280;18697;42.770;23.400;2022-12-04T00:51:19;96628.88;;;6.55;88.84
32197;BME280;18697;42.770;23.400;2022-12-04T00:53:45;96627.72;;;6.53;88.98
32197;BME280;18697;42.770;23.400;2022-12-04T00:56:14;96627.81;;;6.46;89.27
32197;BME280;18697;42.770;23.400;2022-12-04T00:58:40;96620.75;;;6.45;89.76
32197;BME280;18697;42.770;23.400;2022-12-04T01:01:07;96619.16;;;6.44;89.65
32197;BME280;18697;42.770;23.400;2022-12-04T01:03:33;96612.22;;;6.32;90.13
32197;BME280;18697;42.770;23.400;2022-12-04T01:05:58;96618.50;;;6.33;90.90
32197;BME280;18697;42.770;23.400;2022-12-04T01:08:24;96622.47;;;6.32;91.07
32197;BME280;18697;42.770;23.400;2022-12-04T01:10:50;96615.78;;;6.29;91.29
32197;BME280;18697;42.770;23.400;2022-12-04T01:13:15;96616.56;;;6.30;91.16
32197;BME280;18697;42.770;23.400;2022-12-04T01:15:41;96615.00;;;6.29;91.36
32197;BME280;18697;42.770;23.400;2022-12-04T01:18:09;96620.78;;;6.41;91.19
32197;BME280;18697;42.770;23.400;2022-12-04T01:20:35;96618.38;;;6.43;90.90
32197;BME280;18697;42.770;23.400;2022-12-04T01:23:00;96621.09;;;6.47;90.53
32197;BME280;18697;42.770;23.400;2022-12-04T01:25:26;96616.31;;;6.51;90.05
32197;BME280;18697;42.770;23.400;2022-12-04T01:27:51;96608.13;;;6.44;89.40
32197;BME280;18697;42.770;23.400;2022-12-04T01:30:16;96619.91;;;6.48;89.67
32197;BME280;18697;42.770;23.400;2022-12-04T01:32:42;96615.13;;;6.52;89.81
32197;BME280;18697;42.770;23.400;2022-12-04T01:35:07;96616.69;;;6.53;89.38
32197;BME280;18697;42.770;23.400;2022-12-04T01:37:33;96619.88;;;6.51;89.46
32197;BME280;18697;42.770;23.400;2022-12-04T01:39:58;96601.38;;;6.48;89.06
32197;BME280;18697;42.770;23.400;2022-12-04T01:42:24;96612.03;;;6.46;89.52
32197;BME280;18697;42.770;23.400;2022-12-04T01:47:57;96612.13;;;6.39;89.87
32197;BME280;18697;42.770;23.400;2022-12-04T01:50:24;96605.03;;;6.38;89.97
32197;BME280;18697;42.770;23.400;2022-12-04T01:52:49;96615.31;;;6.38;90.08
32197;BME280;18697;42.770;23.400;2022-12-04T01:55:15;96604.69;;;6.36;90.19
32197;BME280;18697;42.770;23.400;2022-12-04T01:57:44;96606.97;;;6.41;89.75
32197;BME280;18697;42.770;23.400;2022-12-04T02:00:14;96594.09;;;6.31;89.88
32197;BME280;18697;42.770;23.400;2022-12-04T02:02:43;96597.31;;;6.26;90.70
32197;BME280;18697;42.770;23.400;2022-12-04T02:05:13;96602.09;;;6.22;90.82
32197;BME280;18697;42.770;23.400;2022-12-04T02:07:39;96607.19;;;6.23;90.71
32197;BME280;18697;42.770;23.400;2022-12-04T02:10:06;96602.91;;;6.19;90.76
32197;BME280;18697;42.770;23.400;2022-12-04T02:12:42;96602.44;;;6.24;91.27
32197;BME280;18697;42.770;23.400;2022-12-04T02:21:04;96596.59;;;6.18;91.49
32197;BME280;18697;42.770;23.400;2022-12-04T02:28:55;96592.69;;;6.16;91.21
32197;BME280;18697;42.770;23.400;2022-12-04T02:31:28;96591.94;;;6.12;91.13
32197;BME280;18697;42.770;23.400;2022-12-04T02:34:00;96589.53;;;6.17;91.13
32197;BME280;18697;42.770;23.400;2022-12-04T02:36:30;96599.72;;;6.20;90.86
32197;BME280;18697;42.770;23.400;2022-12-04T02:39:35;96602.53;;;6.17;90.72
32197;BME280;18697;42.770;23.400;2022-12-04T02:44:56;96587.06;;;6.26;90.04
32197;BME280;18697;42.770;23.400;2022-12-04T02:47:23;96588.66;;;6.24;90.33
32197;BME280;18697;42.770;23.400;2022-12-04T02:49:54;96589.06;;;6.22;90.39
32197;BME280;18697;42.770;23.400;2022-12-04T02:52:25;96585.50;;;6.25;90.23
32197;BME280;18697;42.770;23.400;2022-12-04T02:54:56;96590.59;;;6.27;89.98
32197;BME280;18697;42.770;23.400;2022-12-04T02:57:28;96583.97;;;6.21;90.17
32197;BME280;18697;42.770;23.400;2022-12-04T02:59:56;96587.06;;;6.26;90.34
32197;BME280;18697;42.770;23.400;2022-12-04T03:03:22;96580.72;;;6.30;90.19
32197;BME280;18697;42.770;23.400;2022-12-04T03:05:34;96591.69;;;6.33;90.03
32197;BME280;18697;42.770;23.400;2022-12-04T03:08:10;96579.94;;;6.29;90.07
32197;BME280;18697;42.770;23.400;2022-12-04T03:10:45;96581.81;;;6.36;89.88
32197;BME280;18697;42.770;23.400;2022-12-04T03:13:18;96586.97;;;6.34;89.78
32197;BME280;18697;42.770;23.400;2022-12-04T03:15:53;96579.09;;;6.32;89.61
32197;BME280;18697;42.770;23.400;2022-12-04T03:18:32;96583.44;;;6.33;89.71
32197;BME280;18697;42.770;23.400;2022-12-04T03:21:12;96582.69;;;6.29;89.87
32197;BME280;18697;42.770;23.400;2022-12-04T03:23:51;96590.59;;;6.27;89.91
32197;BME280;18697;42.770;23.400;2022-12-04T03:26:30;96579.50;;;6.31;89.85
32197;BME280;18697;42.770;23.400;2022-12-04T03:31:43;96579.06;;;6.36;89.32
32197;BME280;18697;42.770;23.400;2022-12-04T03:34:12;96577.56;;;6.28;90.08
32197;BME280;18697;42.770;23.400;2022-12-04T03:36:48;96575.97;;;6.30;89.70
32197;BME280;18697;42.770;23.400;2022-12-04T03:39:29;96584.66;;;6.29;89.83
32197;BME280;18697;42.770;23.400;2022-12-04T03:42:02;96567.41;;;6.21;89.82
32197;BME280;18697;42.770;23.400;2022-12-04T03:45:23;96557.63;;;6.16;90.10
32197;BME280;18697;42.770;23.400;2022-12-04T03:47:57;96582.53;;;6.09;90.27
32197;BME280;18697;42.770;23.400;2022-12-04T03:50:32;96587.63;;;6.11;90.86
32197;BME280;18697;42.770;23.400;2022-12-04T03:53:15;96580.13;;;6.11;90.51
32197;BME280;18697;42.770;23.400;2022-12-04T03:55:55;96578.16;;;6.12;90.57
32197;BME280;18697;42.770;23.400;2022-12-04T03:58:28;96584.81;;;6.14;90.37
32197;BME280;18697;42.770;23.400;2022-12-04T04:00:55;96579.34;;;6.11;90.17
32197;BME280;18697;42.770;23.400;2022-12-04T04:03:26;96575.81;;;6.10;90.16
32197;BME280;18697;42.770;23.400;2022-12-04T04:05:57;96574.63;;;6.11;90.21
32197;BME280;18697;42.770;23.400;2022-12-04T04:08:28;96573.78;;;6.14;90.04
32197;BME280;18697;42.770;23.400;2022-12-04T04:11:09;96574.69;;;6.04;90.47
32197;BME280;18697;42.770;23.400;2022-12-04T04:13:57;96574.75;;;6.01;90.88
32197;BME280;18697;42.770;23.400;2022-12-04T04:16:48;96576.72;;;6.00;91.05
32197;BME280;18697;42.770;23.400;2022-12-04T04:19:35;96576.72;;;6.00;91.21
32197;BME280;18697;42.770;23.400;2022-12-04T04:22:22;96578.00;;;5.92;91.61
32197;BME280;18697;42.770;23.400;2022-12-04T04:25:14;96570.13;;;5.94;91.83
32197;BME280;18697;42.770;23.400;2022-12-04T04:27:40;96577.63;;;5.90;91.62
32197;BME280;18697;42.770;23.400;2022-12-04T04:30:07;96582.69;;;5.95;91.68
32197;BME280;18697;42.770;23.400;2022-12-04T04:32:44;96577.63;;;5.90;91.73
32197;BME280;18697;42.770;23.400;2022-12-04T04:36:15;96578.84;;;5.89;92.03
32197;BME280;18697;42.770;23.400;2022-12-04T04:38:27;96579.66;;;5.82;92.34
32197;BME280;18697;42.770;23.400;2022-12-04T04:40:59;96594.19;;;5.90;92.44
32197;BME280;18697;42.770;23.400;2022-12-04T04:43:34;96594.56;;;5.88;92.28
32197;BME280;18697;42.770;23.400;2022-12-04T04:46:03;96588.25;;;5.88;92.29
32197;BME280;18697;42.770;23.400;2022-12-04T04:48:33;96590.59;;;5.93;92.18
32197;BME280;18697;42.770;23.400;2022-12-04T04:51:02;96590.66;;;5.89;92.60
32197;BME280;18697;42.770;23.400;2022-12-04T04:53:34;96591.44;;;5.90;92.75
32197;BME280;18697;42.770;23.400;2022-12-04T04:56:00;96591.38;;;5.93;92.97
32197;BME280;18697;42.770;23.400;2022-12-04T04:58:26;96598.91;;;5.89;93.01
32197;BME280;18697;42.770;23.400;2022-12-04T05:01:02;96594.09;;;5.97;92.86
32197;BME280;18697;42.770;23.400;2022-12-04T05:03:28;96594.78;;;6.05;92.87
32197;BME280;18697;42.770;23.400;2022-12-04T05:05:54;96595.19;;;6.03;92.43
32197;BME280;18697;42.770;23.400;2022-12-04T05:08:20;96608.16;;;6.06;92.17
32197;BME280;18697;42.770;23.400;2022-12-04T05:10:46;96603.91;;;5.98;92.60
32197;BME280;18697;42.770;23.400;2022-12-04T05:13:12;96608.25;;;5.99;92.66
32197;BME280;18697;42.770;23.400;2022-12-04T05:15:37;96607.88;;;5.97;92.54
32197;BME280;18697;42.770;23.400;2022-12-04T05:18:03;96605.06;;;6.01;92.44
32197;BME280;18697;42.770;23.400;2022-12-04T05:20:29;96607.78;;;6.04;92.25
32197;BME280;18697;42.770;23.400;2022-12-04T05:22:55;96619.28;;;5.99;92.04
32197;BME280;18697;42.770;23.400;2022-12-04T05:25:20;96611.03;;;5.96;92.15
32197;BME280;18697;42.770;23.400;2022-12-04T05:27:46;96618.09;;;6.00;92.11
32197;BME280;18697;42.770;23.400;2022-12-04T05:30:11;96616.50;;;5.99;91.70
32197;BME280;18697;42.770;23.400;2022-12-04T05:32:37;96608.72;;;5.94;91.92
32197;BME280;18697;42.770;23.400;2022-12-04T05:35:03;96618.53;;;5.95;92.31
32197;BME280;18697;42.770;23.400;2022-12-04T05:37:29;96616.22;;;5.93;92.21
32197;BME280;18697;42.770;23.400;2022-12-04T05:39:54;96614.22;;;5.94;92.49
32197;BME280;18697;42.770;23.400;2022-12-04T05:42:19;96614.94;;;5.98;92.43
32197;BME280;18697;42.770;23.400;2022-12-04T05:44:47;96617.44;;;5.89;92.56
32197;BME280;18697;42.770;23.400;2022-12-04T05:47:12;96620.19;;;5.89;92.76
32197;BME280;18697;42.770;23.400;2022-12-04T05:49:38;96622.06;;;5.96;92.61
32197;BME280;18697;42.770;23.400;2022-12-04T05:52:04;96622.81;;;6.00;92.61
32197;BME280;18697;42.770;23.400;2022-12-04T05:54:29;96630.69;;;6.01;92.75
32197;BME280;18697;42.770;23.400;2022-12-04T05:56:55;96629.84;;;6.04;92.78
32197;BME280;18697;42.770;23.400;2022-12-04T05:59:21;96632.22;;;6.06;92.73
32197;BME280;18697;42.770;23.400;2022-12-04T06:01:46;96631.44;;;6.05;92.68
32197;BME280;18697;42.770;23.400;2022-12-04T06:04:12;96628.75;;;5.98;93.00
32197;BME280;18697;42.770;23.400;2022-12-04T06:06:37;96633.47;;;5.98;93.24
32197;BME280;18697;42.770;23.400;2022-12-04T06:09:05;96635.41;;;6.01;93.57
32197;BME280;18697;42.770;23.400;2022-12-04T06:11:34;96629.03;;;6.07;93.54
32197;BME280;18697;42.770;23.400;2022-12-04T06:14:02;96627.47;;;6.06;93.65
32197;BME280;18697;42.770;23.400;2022-12-04T06:16:30;96625.06;;;6.12;93.97
32197;BME280;18697;42.770;23.400;2022-12-04T06:18:57;96628.97;;;6.14;93.70
32197;BME280;18697;42.770;23.400;2022-12-04T06:21:25;96629.75;;;6.15;93.59
32197;BME280;18697;42.770;23.400;2022-12-04T06:23:51;96625.84;;;6.12;93.75
32197;BME280;18697;42.770;23.400;2022-12-04T06:26:17;96635.63;;;6.17;93.73
32197;BME280;18697;42.770;23.400;2022-12-04T06:28:43;96637.63;;;6.16;93.60
32197;BME280;18697;42.770;23.400;2022-12-04T06:31:10;96637.91;;;6.25;93.53
32197;BME280;18697;42.770;23.400;2022-12-04T06:33:37;96641.78;;;6.32;93.17
32197;BME280;18697;42.770;23.400;2022-12-04T06:36:09;96640.97;;;6.35;92.98
32197;BME280;18697;42.770;23.400;2022-12-04T06:38:36;96647.56;;;6.44;92.65
32197;BME280;18697;42.770;23.400;2022-12-04T06:41:06;96643.59;;;6.45;92.29
32197;BME280;18697;42.770;23.400;2022-12-04T06:43:32;96653.09;;;6.41;92.05
32197;BME280;18697;42.770;23.400;2022-12-04T06:46:09;96649.94;;;6.42;92.14
32197;BME280;18697;42.770;23.400;2022-12-04T06:48:35;96645.91;;;6.50;91.92
32197;BME280;18697;42.770;23.400;2022-12-04T06:51:02;96655.38;;;6.49;91.38
32197;BME280;18697;42.770;23.400;2022-12-04T06:53:27;96649.13;;;6.45;91.34
32197;BME280;18697;42.770;23.400;2022-12-04T06:55:58;96664.88;;;6.45;91.52
32197;BME280;18697;42.770;23.400;2022-12-04T06:58:25;96659.75;;;6.47;91.42
32197;BME280;18697;42.770;23.400;2022-12-04T07:00:51;96655.78;;;6.48;91.29
32197;BME280;18697;42.770;23.400;2022-12-04T07:03:17;96653.84;;;6.45;90.44
32197;BME280;18697;42.770;23.400;2022-12-04T07:05:42;96655.34;;;6.53;90.24
32197;BME280;18697;42.770;23.400;2022-12-04T07:08:08;96655.34;;;6.53;90.17
32197;BME280;18697;42.770;23.400;2022-12-04T07:10:35;96641.94;;;6.51;90.33
32197;BME280;18697;42.770;23.400;2022-12-04T07:13:01;96657.69;;;6.54;90.02
32197;BME280;18697;42.770;23.400;2022-12-04T07:15:26;96645.41;;;6.59;89.73
32197;BME280;18697;42.770;23.400;2022-12-04T07:17:52;96652.81;;;6.66;89.74
32197;BME280;18697;42.770;23.400;2022-12-04T07:20:17;96639.44;;;6.64;89.43
32197;BME280;18697;42.770;23.400;2022-12-04T07:22:43;96655.78;;;6.78;89.74
32197;BME280;18697;42.770;23.400;2022-12-04T07:25:08;96658.50;;;6.82;89.40
32197;BME280;18697;42.770;23.400;2022-12-04T07:27:34;96660.47;;;6.81;89.76
32197;BME280;18697;42.770;23.400;2022-12-04T07:29:59;96649.44;;;6.81;90.15
32197;BME280;18697;42.770;23.400;2022-12-04T07:32:24;96660.94;;;6.76;89.96
32197;BME280;18697;42.770;23.400;2022-12-04T07:34:50;96670.00;;;6.77;90.14
32197;BME280;18697;42.770;23.400;2022-12-04T07:37:15;96660.88;;;6.80;90.17
32197;BME280;18697;42.770;23.400;2022-12-04T07:39:40;96667.78;;;6.95;89.65
32197;BME280;18697;42.770;23.400;2022-12-04T07:42:06;96640.28;;;6.88;89.46
32197;BME280;18697;42.770;23.400;2022-12-04T07:44:31;96657.53;;;6.96;89.16
32197;BME280;18697;42.770;23.400;2022-12-04T07:46:57;96664.16;;;7.02;89.21
32197;BME280;18697;42.770;23.400;2022-12-04T07:49:22;96663.69;;;7.07;88.92
32197;BME280;18697;42.770;23.400;2022-12-04T07:51:48;96661.75;;;7.04;87.96
32197;BME280;18697;42.770;23.400;2022-12-04T07:54:13;96666.81;;;7.09;88.42
32197;BME280;18697;42.770;23.400;2022-12-04T07:56:39;96670.63;;;7.18;88.56
32197;BME280;18697;42.770;23.400;2022-12-04T07:59:04;96676.47;;;7.24;88.25
32197;BME280;18697;42.770;23.400;2022-12-04T08:01:30;96670.22;;;7.20;87.71
32197;BME280;18697;42.770;23.400;2022-12-04T08:03:57;96660.41;;;7.15;87.65
32197;BME280;18697;42.770;23.400;2022-12-04T08:06:24;96660.72;;;7.21;87.98
32197;BME280;18697;42.770;23.400;2022-12-04T08:08:51;96655.47;;;7.30;88.12
32197;BME280;18697;42.770;23.400;2022-12-04T08:11:19;96670.78;;;7.35;87.44
32197;BME280;18697;42.770;23.400;2022-12-04T08:13:46;96673.72;;;7.24;87.14
32197;BME280;18697;42.770;23.400;2022-12-04T08:16:13;96682.47;;;7.19;87.63
32197;BME280;18697;42.770;23.400;2022-12-04T08:18:39;96656.88;;;7.15;87.81
32197;BME280;18697;42.770;23.400;2022-12-04T08:21:18;96658.28;;;7.27;88.18
32197;BME280;18697;42.770;23.400;2022-12-04T08:23:45;96653.44;;;7.34;88.11
32197;BME280;18697;42.770;23.400;2022-12-04T08:26:11;96647.06;;;7.37;87.75
32197;BME280;18697;42.770;23.400;2022-12-04T08:28:37;96654.44;;;7.44;87.76
32197;BME280;18697;42.770;23.400;2022-12-04T08:31:11;96661.63;;;7.41;87.67
32197;BME280;18697;42.770;23.400;2022-12-04T08:33:38;96663.88;;;7.46;88.31
32197;BME280;18697;42.770;23.400;2022-12-04T08:36:09;96655.66;;;7.43;88.13
32197;BME280;18697;42.770;23.400;2022-12-04T08:38:35;96658.78;;;7.45;88.01
32197;BME280;18697;42.770;23.400;2022-12-04T08:41:01;96645.44;;;7.40;87.72
32197;BME280;18697;42.770;23.400;2022-12-04T08:43:28;96656.56;;;7.36;87.79
32197;BME280;18697;42.770;23.400;2022-12-04T08:45:58;96658.97;;;7.34;87.87
32197;BME280;18697;42.770;23.400;2022-12-04T08:48:24;96670.59;;;7.45;87.79
32197;BME280;18697;42.770;23.400;2022-12-04T08:50:49;96668.72;;;7.42;87.38
32197;BME280;18697;42.770;23.400;2022-12-04T08:53:15;96647.53;;;7.32;87.86
32197;BME280;18697;42.770;23.400;2022-12-04T08:55:40;96644.13;;;7.48;87.85
32197;BME280;18697;42.770;23.400;2022-12-04T08:58:06;96653.19;;;7.48;88.06
32197;BME280;18697;42.770;23.400;2022-12-04T09:00:31;96655.78;;;7.36;88.46
32197;BME280;18697;42.770;23.400;2022-12-04T09:02:57;96659.75;;;7.35;88.92
32197;BME280;18697;42.770;23.400;2022-12-04T09:05:22;96654.03;;;7.45;88.91
32197;BME280;18697;42.770;23.400;2022-12-04T09:07:47;96642.59;;;7.43;88.74
32197;BME280;18697;42.770;23.400;2022-12-04T09:10:13;96625.69;;;7.41;88.57
32197;BME280;18697;42.770;23.400;2022-12-04T09:12:38;96625.84;;;7.31;88.92
32197;BME280;18697;42.770;23.400;2022-12-04T09:15:04;96629.72;;;7.37;88.71
32197;BME280;18697;42.770;23.400;2022-12-04T09:17:30;96630.75;;;7.19;88.68
32197;BME280;18697;42.770;23.400;2022-12-04T09:19:55;96644.84;;;7.29;88.75
32197;BME280;18697;42.770;23.400;2022-12-04T09:22:21;96638.69;;;7.17;89.32
32197;BME280;18697;42.770;23.400;2022-12-04T09:24:46;96638.16;;;7.26;89.70
32197;BME280;18697;42.770;23.400;2022-12-04T09:27:11;96637.06;;;7.43;89.31
32197;BME280;18697;42.770;23.400;2022-12-04T09:29:37;96626.38;;;7.45;88.54
32197;BME280;18697;42.770;23.400;2022-12-04T09:32:02;96624.75;;;7.48;88.24
32197;BME280;18697;42.770;23.400;2022-12-04T09:34:28;96622.97;;;7.38;87.94
32197;BME280;18697;42.770;23.400;2022-12-04T09:36:53;96620.84;;;7.45;88.01
32197;BME280;18697;42.770;23.400;2022-12-04T09:39:18;96615.25;;;7.49;87.64
32197;BME280;18697;42.770;23.400;2022-12-04T09:42:11;96616.72;;;7.57;87.71
32197;BME280;18697;42.770;23.400;2022-12-04T09:45:02;96605.97;;;7.63;87.05
32197;BME280;18697;42.770;23.400;2022-12-04T09:47:38;96610.47;;;7.76;87.02
32197;BME280;18697;42.770;23.400;2022-12-04T09:50:20;96609.31;;;7.74;86.82
32197;BME280;18697;42.770;23.400;2022-12-04T09:52:54;96604.41;;;7.62;86.80
32197;BME280;18697;42.770;23.400;2022-12-04T09:55:26;96613.06;;;7.40;87.33
32197;BME280;18697;42.770;23.400;2022-12-04T09:57:55;96605.25;;;7.35;88.08
32197;BME280;18697;42.770;23.400;2022-12-04T10:00:23;96607.59;;;7.37;87.87
32197;BME280;18697;42.770;23.400;2022-12-04T10:03:04;96581.56;;;7.34;87.61
32197;BME280;18697;42.770;23.400;2022-12-04T10:05:48;96579.66;;;7.31;88.20
32197;BME280;18697;42.770;23.400;2022-12-04T10:19:29;96549.63;;;7.33;86.89
32197;BME280;18697;42.770;23.400;2022-12-04T10:24:48;96549.50;;;7.40;86.52
32197;BME280;18697;42.770;23.400;2022-12-04T10:27:28;96537.09;;;7.48;85.96
32197;BME280;18697;42.770;23.400;2022-12-04T10:30:00;96525.81;;;7.39;85.23
32197;BME280;18697;42.770;23.400;2022-12-04T10:32:33;96537.44;;;7.50;85.38
32197;BME280;18697;42.770;23.400;2022-12-04T10:35:16;96542.69;;;7.45;84.94
32197;BME280;18697;42.770;23.400;2022-12-04T10:37:44;96547.00;;;7.46;85.15
32197;BME280;18697;42.770;23.400;2022-12-04T10:40:18;96545.09;;;7.43;84.72
32197;BME280;18697;42.770;23.400;2022-12-04T10:45:34;96534.00;;;7.66;84.73
32197;BME280;18697;42.770;23.400;2022-12-04T10:47:59;96525.03;;;7.82;83.69
32197;BME280;18697;42.770;23.400;2022-12-04T10:50:25;96520.22;;;7.86;82.25
32197;BME280;18697;42.770;23.400;2022-12-04T10:52:50;96518.28;;;7.83;82.36
32197;BME280;18697;42.770;23.400;2022-12-04T10:55:36;96510.34;;;7.85;82.96
32197;BME280;18697;42.770;23.400;2022-12-04T10:58:16;96513.97;;;7.82;83.00
32197;BME280;18697;42.770;23.400;2022-12-04T11:00:43;96512.75;;;7.83;82.53
32197;BME280;18697;42.770;23.400;2022-12-04T11:03:27;96526.72;;;7.76;82.95
32197;BME280;18697;42.770;23.400;2022-12-04T11:05:56;96520.84;;;7.74;82.51
32197;BME280;18697;42.770;23.400;2022-12-04T11:08:25;96530.41;;;7.69;82.17
32197;BME280;18697;42.770;23.400;2022-12-04T11:11:37;96533.09;;;7.73;82.43
32197;BME280;18697;42.770;23.400;2022-12-04T11:14:21;96528.06;;;7.68;81.96
32197;BME280;18697;42.770;23.400;2022-12-04T11:16:49;96511.47;;;7.68;82.29
32197;BME280;18697;42.770;23.400;2022-12-04T11:19:26;96507.63;;;7.62;81.87
32197;BME280;18697;42.770;23.400;2022-12-04T11:21:55;96505.09;;;7.71;81.26
32197;BME280;18697;42.770;23.400;2022-12-04T11:24:25;96485.94;;;7.80;81.56
32197;BME280;18697;42.770;23.400;2022-12-04T11:26:53;96488.50;;;7.71;81.71
32197;BME280;18697;42.770;23.400;2022-12-04T11:29:25;96486.94;;;7.70;81.83
32197;BME280;18697;42.770;23.400;2022-12-04T11:31:54;96509.84;;;7.70;82.24
32197;BME280;18697;42.770;23.400;2022-12-04T11:34:23;96506.50;;;7.79;82.15
32197;BME280;18697;42.770;23.400;2022-12-04T11:36:55;96511.25;;;7.78;81.10
32197;BME280;18697;42.770;23.400;2022-12-04T11:39:29;96512.31;;;7.65;81.34
32197;BME280;18697;42.770;23.400;2022-12-04T11:42:16;96522.38;;;7.75;81.86
32197;BME280;18697;42.770;23.400;2022-12-04T11:44:58;96516.84;;;7.75;81.95
32197;BME280;18697;42.770;23.400;2022-12-04T11:47:27;96513.59;;;7.80;81.59
32197;BME280;18697;42.770;23.400;2022-12-04T11:50:28;96507.34;;;7.76;81.75
32197;BME280;18697;42.770;23.400;2022-12-04T11:53:09;96511.03;;;7.69;82.06
32197;BME280;18697;42.770;23.400;2022-12-04T11:56:03;96497.09;;;7.76;82.44
32197;BME280;18697;42.770;23.400;2022-12-04T12:01:42;96510.47;;;7.78;82.78
32197;BME280;18697;42.770;23.400;2022-12-04T12:04:36;96524.38;;;7.74;82.81
32197;BME280;18697;42.770;23.400;2022-12-04T12:17:31;96512.03;;;7.59;83.31
32197;BME280;18697;42.770;23.400;2022-12-04T12:25:44;96526.19;;;7.41;84.51
32197;BME280;18697;42.770;23.400;2022-12-04T12:28:18;96524.03;;;7.49;84.60
32197;BME280;18697;42.770;23.400;2022-12-04T12:33:21;96536.63;;;7.30;84.33
32197;BME280;18697;42.770;23.400;2022-12-04T12:36:08;96547.16;;;7.39;84.25
32197;BME280;18697;42.770;23.400;2022-12-04T12:38:39;96542.03;;;7.37;83.88
32197;BME280;18697;42.770;23.400;2022-12-04T12:41:12;96530.28;;;7.33;83.62
32197;BME280;18697;42.770;23.400;2022-12-04T12:43:39;96537.78;;;7.33;84.12
32197;BME280;18697;42.770;23.400;2022-12-04T12:46:13;96536.47;;;7.41;84.27
32197;BME280;18697;42.770;23.400;2022-12-04T12:51:42;96539.63;;;7.39;83.90
32197;BME280;18697;42.770;23.400;2022-12-04T12:57:16;96532.50;;;7.42;83.99
32197;BME280;18697;42.770;23.400;2022-12-04T12:59:47;96520.66;;;7.41;83.62
32197;BME280;18697;42.770;23.400;2022-12-04T13:02:24;96522.06;;;7.49;84.06
32197;BME280;18697;42.770;23.400;2022-12-04T13:04:55;96526.59;;;7.40;83.81
32197;BME280;18697;42.770;23.400;2022-12-04T13:07:40;96527.16;;;7.31;84.14
32197;BME280;18697;42.770;23.400;2022-12-04T13:12:53;96523.78;;;7.20;85.06
32197;BME280;18697;42.770;23.400;2022-12-04T13:15:23;96512.00;;;7.16;85.84
32197;BME280;18697;42.770;23.400;2022-12-04T13:17:53;96520.41;;;7.09;86.62
32197;BME280;18697;42.770;23.400;2022-12-04T13:20:35;96523.59;;;7.07;87.03
32197;BME280;18697;42.770;23.400;2022-12-04T13:29:15;96519.28;;;7.30;86.27
32197;BME280;18697;42.770;23.400;2022-12-04T13:32:07;96513.94;;;7.42;86.20
32197;BME280;18697;42.770;23.400;2022-12-04T13:34:46;96511.22;;;7.39;85.86
32197;BME280;18697;42.770;23.400;2022-12-04T13:37:23;96525.59;;;7.30;85.87
32197;BME280;18697;42.770;23.400;2022-12-04T13:40:03;96511.88;;;7.23;86.97
32197;BME280;18697;42.770;23.400;2022-12-04T13:42:41;96511.41;;;7.28;86.65
32197;BME280;18697;42.770;23.400;2022-12-04T13:45:09;96526.13;;;7.21;86.91
32197;BME280;18697;42.770;23.400;2022-12-04T13:47:36;96532.84;;;7.20;87.04
32197;BME280;18697;42.770;23.400;2022-12-04T13:52:43;96513.63;;;7.56;85.27
32197;BME280;18697;42.770;23.400;2022-12-04T13:55:22;96516.16;;;7.71;84.63
32197;BME280;18697;42.770;23.400;2022-12-04T13:58:01;96529.75;;;7.62;84.71
32197;BME280;18697;42.770;23.400;2022-12-04T14:00:33;96541.22;;;7.60;84.75
32197;BME280;18697;42.770;23.400;2022-12-04T14:05:44;96537.66;;;7.40;85.65
32197;BME280;18697;42.770;23.400;2022-12-04T14:13:23;96537.47;;;7.27;86.45
32197;BME280;18697;42.770;23.400;2022-12-04T14:18:58;96544.22;;;7.26;86.66
32197;BME280;18697;42.770;23.400;2022-12-04T14:21:37;96524.78;;;7.06;87.27
32197;BME280;18697;42.770;23.400;2022-12-04T14:24:15;96515.47;;;6.97;88.28
32197;BME280;18697;42.770;23.400;2022-12-04T14:26:51;96541.84;;;7.01;88.65
32197;BME280;18697;42.770;23.400;2022-12-04T14:29:33;96531.06;;;6.83;89.08
32197;BME280;18697;42.770;23.400;2022-12-04T14:32:13;96519.19;;;6.86;89.12
32197;BME280;18697;42.770;23.400;2022-12-04T14:34:39;96529.50;;;6.82;88.88
32197;BME280;18697;42.770;23.400;2022-12-04T14:37:05;96526.38;;;6.80;89.46
32197;BME280;18697;42.770;23.400;2022-12-04T14:39:35;96541.28;;;6.86;89.55
32197;BME280;18697;42.770;23.400;2022-12-04T14:42:24;96541.38;;;6.79;89.52
32197;BME280;18697;42.770;23.400;2022-12-04T14:44:54;96540.22;;;6.77;89.76